Time;durP1;ratioP1;P1;durP2;ratioP2;P2;SDS_P1;SDS_P2;PMS_P1;PMS_P2;Temp;Humidity;BMP_temperature;BMP_pressure;BME280_temperature;BME280_humidity;BME280_pressure;Samples;Min_cycle;Max_cycle;Signal;HPM_P1;HPM_P2
2022/06/09 00:02:01;;;;;;;6.18;4.15;;;18.40;99.90;;;;;;4140271;28;20087;-65
2022/06/09 00:04:11;;;;;;;6.32;4.00;;;18.30;99.90;;;;;;4139281;28;20038;-64
2022/06/09 00:06:13;;;;;;;4.28;3.67;;;18.30;99.90;;;;;;4139922;28;20017;-67
2022/06/09 00:08:16;;;;;;;6.57;4.65;;;18.20;99.90;;;;;;4147752;28;20127;-64
2022/06/09 00:10:23;;;;;;;4.25;3.85;;;18.20;99.90;;;;;;4156537;28;20471;-64
2022/06/09 00:12:25;;;;;;;4.40;4.00;;;18.20;99.90;;;;;;4138148;28;21028;-63
2022/06/09 00:14:27;;;;;;;6.63;4.00;;;18.10;99.90;;;;;;4155557;28;20096;-65
2022/06/09 00:16:28;;;;;;;6.13;4.20;;;18.10;99.90;;;;;;4146330;28;20095;-63
2022/06/09 00:18:29;;;;;;;8.50;4.30;;;18.10;99.90;;;;;;4139195;28;20453;-64
2022/06/09 00:20:31;;;;;;;6.85;4.22;;;18.10;99.90;;;;;;4139765;28;20046;-63
2022/06/09 00:22:32;;;;;;;6.15;4.10;;;18.10;99.90;;;;;;4139497;28;20033;-64
2022/06/09 00:24:33;;;;;;;4.95;4.00;;;18.10;99.90;;;;;;4144687;28;20436;-63
2022/06/09 00:26:35;;;;;;;4.72;3.70;;;18.10;99.90;;;;;;4155228;28;20080;-64
2022/06/09 00:28:36;;;;;;;7.13;4.20;;;18.10;99.90;;;;;;4143360;28;20042;-65
2022/06/09 00:30:37;;;;;;;4.82;4.13;;;18.10;99.90;;;;;;4143756;28;20642;-64
2022/06/09 00:32:39;;;;;;;8.05;5.93;;;18.10;99.90;;;;;;4156206;28;20045;-63
2022/06/09 00:34:40;;;;;;;6.60;4.18;;;18.10;99.90;;;;;;4155371;28;20497;-63
2022/06/09 00:36:41;;;;;;;6.45;4.60;;;18.10;99.90;;;;;;4156670;28;20030;-63
2022/06/09 00:38:43;;;;;;;6.90;4.93;;;18.10;99.90;;;;;;4155677;28;20919;-63
2022/06/09 00:40:44;;;;;;;7.07;4.65;;;18.10;99.90;;;;;;4156064;28;20029;-64
2022/06/09 00:42:45;;;;;;;7.60;4.20;;;18.10;99.90;;;;;;4154082;28;20067;-65
2022/06/09 00:44:47;;;;;;;8.05;4.97;;;18.10;99.90;;;;;;4123153;28;20100;-66
2022/06/09 00:47:05;;;;;;;6.80;4.75;;;18.00;99.90;;;;;;4147430;28;20030;-64
2022/06/09 00:49:18;;;;;;;6.85;4.72;;;18.00;99.90;;;;;;4155665;28;20029;-65
2022/06/09 00:51:26;;;;;;;7.47;4.93;;;18.00;99.90;;;;;;4155533;28;20033;-65
2022/06/09 00:53:34;;;;;;;6.95;4.72;;;18.00;99.90;;;;;;4156382;28;20569;-64
2022/06/09 00:55:36;;;;;;;7.63;4.60;;;18.00;99.90;;;;;;4155274;28;20072;-64
2022/06/09 00:57:47;;;;;;;9.02;4.82;;;18.00;99.90;;;;;;4155216;28;20111;-65
2022/06/09 00:59:52;;;;;;;7.28;4.55;;;17.90;99.90;;;;;;4153700;28;20025;-66
2022/06/09 01:01:55;;;;;;;6.97;5.68;;;17.90;99.90;;;;;;4155530;28;20037;-64
2022/06/09 01:04:04;;;;;;;6.53;4.95;;;18.00;99.90;;;;;;4155710;28;20029;-63
2022/06/09 01:06:12;;;;;;;5.87;5.00;;;18.00;99.90;;;;;;4151410;28;20043;-64
2022/06/09 01:08:15;;;;;;;6.15;4.15;;;17.90;99.90;;;;;;4139186;28;20255;-63
2022/06/09 01:10:17;;;;;;;8.43;4.00;;;17.90;99.90;;;;;;4138940;28;20034;-63
2022/06/09 01:12:32;;;;;;;6.13;4.65;;;17.90;99.90;;;;;;4139452;28;20084;-63
2022/06/09 01:14:33;;;;;;;5.20;4.68;;;17.90;99.90;;;;;;4138913;28;20042;-63
2022/06/09 01:16:43;;;;;;;8.05;4.13;;;17.90;99.90;;;;;;4154105;28;20037;-62
2022/06/09 01:18:54;;;;;;;12.15;4.90;;;17.90;99.90;;;;;;4155339;28;20049;-63
2022/06/09 01:21:15;;;;;;;;;;;17.90;99.90;;;;;;4156145;28;20059;-62
2022/06/09 01:24:03;;;;;;;6.20;3.53;;;17.90;99.90;;;;;;4153811;28;19963;-63
2022/06/09 01:26:34;;;;;;;10.52;4.80;;;17.90;99.90;;;;;;4144111;28;20096;-61
2022/06/09 01:29:10;;;;;;;5.68;4.55;;;17.90;99.90;;;;;;4139776;28;20096;-62
2022/06/09 01:31:45;;;;;;;5.18;4.20;;;17.80;99.90;;;;;;4140991;28;20108;-61
2022/06/09 01:34:09;;;;;;;5.78;4.00;;;17.80;99.90;;;;;;4156009;28;20037;-63
2022/06/09 01:36:23;;;;;;;6.00;4.45;;;17.80;99.90;;;;;;4154554;28;20563;-61
2022/06/09 01:38:24;;;;;;;7.25;4.78;;;17.70;99.90;;;;;;4155112;28;20041;-62
2022/06/09 01:40:25;;;;;;;7.50;5.38;;;17.70;99.90;;;;;;4155621;28;20091;-62
2022/06/09 01:42:30;;;;;;;6.07;4.93;;;17.60;99.90;;;;;;4158424;28;20091;-61
2022/06/09 01:44:32;;;;;;;6.88;4.72;;;17.50;99.90;;;;;;4157982;28;20046;-62
2022/06/09 01:46:37;;;;;;;6.45;4.80;;;17.40;99.90;;;;;;4156863;28;20029;-62
2022/06/09 01:48:38;;;;;;;6.07;4.95;;;17.20;99.90;;;;;;4140973;28;20072;-62
2022/06/09 01:50:48;;;;;;;7.70;4.80;;;17.10;99.90;;;;;;4143121;28;20050;-62
2022/06/09 01:52:51;;;;;;;6.95;5.60;;;16.90;99.90;;;;;;4141513;28;20042;-62
2022/06/09 01:54:54;;;;;;;8.35;6.13;;;16.80;99.90;;;;;;4142437;28;20025;-63
2022/06/09 01:57:02;;;;;;;7.88;5.80;;;16.60;99.90;;;;;;4140976;28;20049;-63
2022/06/09 01:59:11;;;;;;;8.20;5.45;;;16.50;99.90;;;;;;4141938;28;20038;-62
2022/06/09 02:01:15;;;;;;;8.85;5.70;;;16.50;99.90;;;;;;4141882;28;20452;-63
2022/06/09 02:03:23;;;;;;;7.20;5.50;;;16.50;99.90;;;;;;4141759;28;20037;-62
2022/06/09 02:05:32;;;;;;;6.70;4.97;;;16.60;99.90;;;;;;4151605;28;20053;-61
2022/06/09 02:07:37;;;;;;;7.10;5.30;;;16.70;99.90;;;;;;4150803;28;20096;-63
2022/06/09 02:09:38;;;;;;;6.32;5.25;;;16.80;99.90;;;;;;4141118;28;20433;-64
2022/06/09 02:11:51;;;;;;;8.57;5.70;;;16.90;99.90;;;;;;4141415;28;20080;-63
2022/06/09 02:13:56;;;;;;;7.50;5.82;;;16.90;99.90;;;;;;4141363;28;20084;-62
2022/06/09 02:16:05;;;;;;;7.07;5.55;;;16.90;99.90;;;;;;4141536;28;20038;-63
2022/06/09 02:18:10;;;;;;;6.30;5.38;;;17.10;99.90;;;;;;4141325;28;20046;-63
2022/06/09 02:20:13;;;;;;;6.55;4.63;;;17.10;99.90;;;;;;4141862;28;20041;-63
2022/06/09 02:22:15;;;;;;;5.82;5.22;;;17.20;99.90;;;;;;4140871;28;20030;-62
2022/06/09 02:24:17;;;;;;;7.20;5.25;;;17.20;99.90;;;;;;4141076;28;20030;-63
2022/06/09 02:26:18;;;;;;;8.57;5.30;;;17.20;99.90;;;;;;4142090;28;20107;-64
2022/06/09 02:28:19;;;;;;;6.95;5.38;;;17.20;99.90;;;;;;4140474;28;20508;-63
2022/06/09 02:30:20;;;;;;;11.00;5.85;;;17.20;99.90;;;;;;4149257;28;20132;-63
2022/06/09 02:32:22;;;;;;;11.00;5.70;;;17.30;99.90;;;;;;4140903;28;20544;-64
2022/06/09 02:34:23;;;;;;;7.47;5.35;;;17.30;99.90;;;;;;4141467;28;20092;-63
2022/06/09 02:36:25;;;;;;;10.50;5.78;;;17.30;99.90;;;;;;4141115;28;20112;-65
2022/06/09 02:38:26;;;;;;;14.82;5.80;;;17.20;99.90;;;;;;4141623;28;20112;-64
2022/06/09 02:40:29;;;;;;;12.13;5.97;;;17.10;99.90;;;;;;4140847;28;20068;-63
2022/06/09 02:42:30;;;;;;;13.07;8.70;;;17.10;99.90;;;;;;4141892;28;20464;-63
2022/06/09 02:44:31;;;;;;;11.10;8.02;;;17.10;99.90;;;;;;4140236;28;20029;-63
2022/06/09 02:46:33;;;;;;;9.32;7.07;;;17.10;99.90;;;;;;4157993;28;20045;-64
2022/06/09 02:48:34;;;;;;;15.73;8.43;;;17.00;99.90;;;;;;4157051;28;20068;-63
2022/06/09 02:50:36;;;;;;;8.15;6.28;;;17.00;99.90;;;;;;4152983;28;20457;-63
2022/06/09 02:52:37;;;;;;;9.80;5.30;;;17.00;99.90;;;;;;4140175;28;20088;-63
2022/06/09 02:54:38;;;;;;;10.18;5.68;;;17.00;99.90;;;;;;4140808;28;20383;-63
2022/06/09 02:56:42;;;;;;;13.68;6.07;;;17.10;99.90;;;;;;4140252;28;20062;-63
2022/06/09 02:58:43;;;;;;;9.60;6.13;;;17.10;99.90;;;;;;4140239;28;20544;-63
2022/06/09 03:00:44;;;;;;;9.77;5.63;;;17.10;99.90;;;;;;4141760;28;20042;-63
2022/06/09 03:02:55;;;;;;;7.30;5.40;;;17.20;99.90;;;;;;4156641;28;20076;-63
2022/06/09 03:04:58;;;;;;;8.70;5.70;;;17.20;99.90;;;;;;4157027;28;20433;-63
2022/06/09 03:06:59;;;;;;;10.48;5.30;;;17.10;99.90;;;;;;4156439;28;20033;-63
2022/06/09 03:09:02;;;;;;;9.50;5.35;;;16.90;99.90;;;;;;4157527;28;20103;-63
2022/06/09 03:11:03;;;;;;;9.00;5.55;;;16.80;99.90;;;;;;4147621;28;20036;-63
2022/06/09 03:13:06;;;;;;;10.60;5.35;;;16.60;99.90;;;;;;4141096;28;20490;-64
2022/06/09 03:15:10;;;;;;;11.93;5.80;;;16.40;99.90;;;;;;4139726;28;20025;-62
2022/06/09 03:17:11;;;;;;;13.85;6.20;;;16.40;99.90;;;;;;4157021;28;20060;-62
2022/06/09 03:19:13;;;;;;;13.27;6.97;;;16.30;99.90;;;;;;4156038;28;20041;-63
2022/06/09 03:21:14;;;;;;;13.15;7.72;;;16.40;99.90;;;;;;4156828;28;20092;-63
2022/06/09 03:23:17;;;;;;;19.58;12.10;;;16.60;99.90;;;;;;4156213;28;20134;-63
2022/06/09 03:25:19;;;;;;;8.27;5.90;;;16.80;99.90;;;;;;4155443;28;20029;-63
2022/06/09 03:27:20;;;;;;;13.75;6.65;;;17.30;99.90;;;;;;4156195;28;20429;-62
2022/06/09 03:29:21;;;;;;;13.30;6.60;;;17.70;99.90;;;;;;4155163;28;20568;-63
2022/06/09 03:31:22;;;;;;;9.45;6.55;;;18.20;99.90;;;;;;4147826;28;20033;-63
2022/06/09 03:33:24;;;;;;;15.90;6.68;;;18.60;99.90;;;;;;4145467;28;20548;-62
2022/06/09 03:35:25;;;;;;;15.55;6.97;;;19.10;99.90;;;;;;4156003;28;20045;-64
2022/06/09 03:37:26;;;;;;;12.93;6.35;;;19.40;99.90;;;;;;4150519;28;20034;-65
2022/06/09 03:39:27;;;;;;;7.30;5.97;;;19.70;99.90;;;;;;4155868;28;20619;-62
2022/06/09 03:41:29;;;;;;;11.90;6.22;;;20.10;99.90;;;;;;4156292;28;20494;-64
2022/06/09 03:43:30;;;;;;;10.27;5.80;;;20.60;99.90;;;;;;4151116;28;20470;-64
2022/06/09 03:45:33;;;;;;;9.35;5.35;;;20.90;99.90;;;;;;4139558;28;20080;-64
2022/06/09 03:47:34;;;;;;;8.23;4.68;;;21.10;99.90;;;;;;4148681;28;20053;-63
2022/06/09 03:49:35;;;;;;;10.98;5.85;;;21.20;99.90;;;;;;4155693;28;20445;-64
2022/06/09 03:51:36;;;;;;;13.85;5.15;;;21.30;99.90;;;;;;4156244;28;20029;-65
2022/06/09 03:53:39;;;;;;;11.45;5.70;;;21.20;99.90;;;;;;4155167;28;20083;-67
2022/06/09 03:55:42;;;;;;;7.57;5.72;;;21.10;99.90;;;;;;4156089;28;20464;-68
2022/06/09 03:57:43;;;;;;;11.50;6.35;;;20.80;99.90;;;;;;4142850;28;20387;-65
2022/06/09 03:59:44;;;;;;;12.15;5.65;;;20.70;99.90;;;;;;4140566;28;20088;-65
2022/06/09 04:01:45;;;;;;;11.15;5.20;;;20.90;99.90;;;;;;4147686;28;20088;-64
2022/06/09 04:03:48;;;;;;;11.05;5.70;;;21.10;99.90;;;;;;4144847;28;20107;-63
2022/06/09 04:05:49;;;;;;;10.85;5.78;;;21.70;99.90;;;;;;4156061;28;20021;-65
2022/06/09 04:07:51;;;;;;;8.02;5.22;;;22.30;99.90;;;;;;4145089;28;20489;-64
2022/06/09 04:09:52;;;;;;;10.20;5.20;;;22.60;99.90;;;;;;4142879;28;20030;-63
2022/06/09 04:11:53;;;;;;;14.40;5.97;;;22.80;99.90;;;;;;4144141;28;20021;-67
2022/06/09 04:13:54;;;;;;;11.40;6.57;;;22.90;99.90;;;;;;4146698;28;20444;-65
2022/06/09 04:15:56;;;;;;;13.00;5.50;;;23.10;99.90;;;;;;4139031;28;20056;-63
2022/06/09 04:17:57;;;;;;;25.90;6.13;;;23.30;99.90;;;;;;4146076;28;20026;-65
2022/06/09 04:19:58;;;;;;;11.23;6.28;;;23.50;99.90;;;;;;4141872;28;20065;-62
2022/06/09 04:21:59;;;;;;;18.70;6.22;;;23.60;99.90;;;;;;4138422;28;20520;-64
2022/06/09 04:24:00;;;;;;;14.85;6.28;;;23.70;99.90;;;;;;4139557;28;20076;-64
2022/06/09 04:26:02;;;;;;;17.45;6.00;;;24.20;99.90;;;;;;4146962;28;20092;-64
2022/06/09 04:28:04;;;;;;;11.80;6.00;;;24.60;99.90;;;;;;4140239;28;20104;-64
2022/06/09 04:30:07;;;;;;;9.35;5.82;;;25.00;99.90;;;;;;4139899;28;20053;-63
2022/06/09 04:32:08;;;;;;;12.65;6.45;;;25.50;99.90;;;;;;4140449;28;20049;-64
2022/06/09 04:34:10;;;;;;;14.93;6.43;;;26.10;99.90;;;;;;4143925;28;20120;-63
2022/06/09 04:36:12;;;;;;;15.23;7.13;;;26.50;99.90;;;;;;4143992;28;20778;-63
2022/06/09 04:38:14;;;;;;;14.15;6.70;;;;;;;;;;4138806;28;20074;-63
2022/06/09 04:40:17;;;;;;;16.30;7.20;;;26.60;99.90;;;;;;4142269;28;20040;-65
2022/06/09 04:42:18;;;;;;;13.27;7.40;;;;;;;;;;4145099;28;20111;-64
2022/06/09 04:44:20;;;;;;;17.27;7.05;;;;;;;;;;4143795;28;20069;-65
2022/06/09 04:46:22;;;;;;;19.77;7.07;;;;;;;;;;4140643;28;20045;-63
2022/06/09 04:48:23;;;;;;;28.08;7.60;;;;;;;;;;4140529;28;20034;-65
2022/06/09 04:50:25;;;;;;;28.50;6.97;;;;;;;;;;4141750;28;20103;-66
2022/06/09 04:52:26;;;;;;;27.75;6.93;;;;;;;;;;4145391;28;20525;-64
2022/06/09 04:54:28;;;;;;;16.98;6.47;;;;;;;;;;4141115;28;20017;-66
2022/06/09 04:56:29;;;;;;;9.82;5.20;;;27.00;99.20;;;;;;4141260;28;20057;-64
2022/06/09 04:58:31;;;;;;;10.77;5.13;;;27.80;96.40;;;;;;4141491;28;20046;-66
2022/06/09 05:00:32;;;;;;;9.32;5.00;;;26.90;96.70;;;;;;4138262;28;20049;-65
2022/06/09 05:02:34;;;;;;;15.90;5.00;;;;;;;;;;4138533;28;20092;-64
2022/06/09 05:04:35;;;;;;;16.75;6.32;;;;;;;;;;4138944;28;20347;-65
2022/06/09 05:06:37;;;;;;;13.85;5.78;;;;;;;;;;4138900;28;20081;-64
2022/06/09 05:08:40;;;;;;;14.35;6.20;;;;;;;;;;4139263;28;20538;-67
2022/06/09 05:10:42;;;;;;;24.95;7.60;;;;;;;;;;4138844;28;20042;-64
2022/06/09 05:12:44;;;;;;;19.77;7.90;;;;;;;;;;4138285;28;20034;-64
2022/06/09 05:14:45;;;;;;;14.82;7.03;;;;;;;;;;4139364;28;20034;-64
2022/06/09 05:16:47;;;;;;;26.63;8.68;;;;;;;;;;4141621;28;20077;-67
2022/06/09 05:18:49;;;;;;;29.75;7.10;;;;;;;;;;4142346;28;20501;-66
2022/06/09 05:20:51;;;;;;;39.53;8.63;;;26.90;96.90;;;;;;4141095;28;20482;-66
2022/06/09 05:22:53;;;;;;;46.42;10.02;;;27.00;94.50;;;;;;4140579;28;20522;-64
2022/06/09 05:24:59;;;;;;;26.98;7.90;;;26.40;95.50;;;;;;4141273;28;20073;-66
2022/06/09 05:27:00;;;;;;;28.33;7.15;;;25.80;95.90;;;;;;4141590;28;20070;-65
2022/06/09 05:29:02;;;;;;;23.77;7.18;;;25.50;96.30;;;;;;4140787;28;20033;-64
2022/06/09 05:31:03;;;;;;;28.08;7.47;;;25.20;97.00;;;;;;4142423;28;20054;-64
2022/06/09 05:33:04;;;;;;;21.92;7.55;;;25.20;97.00;;;;;;4141285;28;20037;-63
2022/06/09 05:35:06;;;;;;;29.20;8.88;;;25.10;97.00;;;;;;4142258;28;20084;-66
2022/06/09 05:37:07;;;;;;;18.67;6.50;;;24.80;97.20;;;;;;4141140;28;20022;-65
2022/06/09 05:46:15;;;;;;;22.25;6.50;;;23.50;99.60;;;;;;4141325;28;20096;-65
2022/06/09 05:48:16;;;;;;;20.27;6.38;;;23.50;99.90;;;;;;4140584;28;20508;-63
2022/06/09 05:50:17;;;;;;;10.85;5.07;;;23.40;99.90;;;;;;4141213;28;20042;-64
2022/06/09 05:52:23;;;;;;;6.28;4.60;;;23.30;99.90;;;;;;4141021;28;20049;-64
2022/06/09 05:54:24;;;;;;;18.45;4.93;;;23.50;99.90;;;;;;4140836;28;20038;-64
2022/06/09 05:56:26;;;;;;;13.07;5.82;;;23.70;99.90;;;;;;4141456;28;20494;-64
2022/06/09 05:58:27;;;;;;;12.98;6.07;;;23.80;99.90;;;;;;4141076;28;20576;-62
2022/06/09 06:00:28;;;;;;;10.07;5.95;;;24.00;99.80;;;;;;4141028;28;20498;-64
2022/06/09 06:02:29;;;;;;;15.60;6.05;;;24.00;99.70;;;;;;4141459;28;20437;-63
2022/06/09 06:04:30;;;;;;;10.90;7.03;;;24.00;99.80;;;;;;4140884;28;20026;-64
2022/06/09 06:06:35;;;;;;;15.23;7.40;;;24.20;99.70;;;;;;4141909;28;20042;-63
2022/06/09 06:08:39;;;;;;;10.23;7.57;;;23.90;99.90;;;;;;4140890;28;20041;-64
2022/06/09 06:10:41;;;;;;;20.30;7.65;;;23.50;99.90;;;;;;4141406;28;20453;-63
2022/06/09 06:12:42;;;;;;;9.63;6.97;;;23.40;99.90;;;;;;4140264;28;20107;-63
2022/06/09 06:14:44;;;;;;;10.05;6.85;;;23.90;99.90;;;;;;4141465;28;20659;-64
2022/06/09 06:16:45;;;;;;;12.57;6.07;;;24.20;99.90;;;;;;4140553;28;20034;-64
2022/06/09 06:18:46;;;;;;;12.57;6.28;;;24.30;99.90;;;;;;4141413;28;20084;-64
2022/06/09 06:20:48;;;;;;;13.57;6.30;;;24.90;99.80;;;;;;4141047;28;20029;-64
2022/06/09 06:22:49;;;;;;;11.32;4.90;;;25.50;99.20;;;;;;4142089;28;20038;-65
2022/06/09 06:24:50;;;;;;;14.15;6.18;;;26.20;98.70;;;;;;4140631;28;20081;-66
2022/06/09 06:26:51;;;;;;;10.82;5.63;;;25.90;98.10;;;;;;4141787;28;20042;-64
2022/06/09 06:28:52;;;;;;;11.02;5.53;;;25.40;98.50;;;;;;4140714;28;20076;-65
2022/06/09 06:30:54;;;;;;;13.18;5.90;;;24.70;99.00;;;;;;4140262;28;20030;-65
2022/06/09 06:32:55;;;;;;;11.82;5.20;;;24.00;99.90;;;;;;4141413;28;20042;-66
2022/06/09 06:34:56;;;;;;;11.10;5.97;;;24.00;99.90;;;;;;4140705;28;20112;-64
2022/06/09 06:36:57;;;;;;;9.90;5.45;;;24.00;99.90;;;;;;4140868;28;20831;-66
2022/06/09 06:38:58;;;;;;;8.73;5.32;;;24.10;99.90;;;;;;4140310;28;20022;-67
2022/06/09 06:41:02;;;;;;;9.98;5.40;;;24.00;99.90;;;;;;4140587;28;20336;-63
2022/06/09 06:43:03;;;;;;;10.63;5.55;;;24.00;99.90;;;;;;4139650;28;20450;-65
2022/06/09 06:45:06;;;;;;;10.48;5.32;;;23.70;99.90;;;;;;4172129;28;20032;-63
2022/06/09 06:47:07;;;;;;;9.02;5.10;;;23.40;99.90;;;;;;4140361;28;20038;-64
2022/06/09 06:49:08;;;;;;;10.60;5.20;;;23.30;99.90;;;;;;4141301;28;20431;-63
2022/06/09 06:51:10;;;;;;;6.70;4.63;;;23.30;99.90;;;;;;4140351;28;20050;-64
2022/06/09 06:53:12;;;;;;;8.00;4.40;;;23.20;99.90;;;;;;4140848;28;20065;-63
2022/06/09 06:55:16;;;;;;;12.05;4.40;;;23.30;99.90;;;;;;4140793;28;20038;-66
2022/06/09 06:57:17;;;;;;;6.82;4.43;;;23.60;99.90;;;;;;4140419;28;20139;-65
2022/06/09 06:59:18;;;;;;;9.20;4.68;;;24.10;99.90;;;;;;4139747;28;20080;-63
2022/06/09 07:01:19;;;;;;;5.20;4.30;;;24.20;99.90;;;;;;4140194;28;20088;-64
2022/06/09 07:03:20;;;;;;;7.45;4.53;;;24.20;99.90;;;;;;4139987;28;20061;-66
2022/06/09 07:05:22;;;;;;;7.68;4.38;;;24.00;99.90;;;;;;4140869;28;20026;-65
2022/06/09 07:07:25;;;;;;;10.43;4.03;;;24.00;99.90;;;;;;4140487;28;20026;-65
2022/06/09 07:09:26;;;;;;;4.97;4.00;;;24.20;99.90;;;;;;4139765;28;20030;-63
2022/06/09 07:11:27;;;;;;;5.00;4.22;;;24.30;99.90;;;;;;4140685;28;20568;-64
2022/06/09 07:13:28;;;;;;;4.45;3.95;;;24.30;99.90;;;;;;4140334;28;20073;-64
2022/06/09 07:15:29;;;;;;;4.68;4.18;;;24.40;99.90;;;;;;4140492;28;20524;-63
2022/06/09 07:17:31;;;;;;;7.97;4.13;;;24.50;99.90;;;;;;4139818;28;20026;-65
2022/06/09 07:19:32;;;;;;;5.25;3.13;;;24.50;99.90;;;;;;4141073;28;20107;-64
2022/06/09 07:21:33;;;;;;;8.27;3.80;;;24.50;99.90;;;;;;4139643;28;20038;-64
2022/06/09 07:23:35;;;;;;;4.85;3.33;;;24.80;99.90;;;;;;4140450;28;20057;-63
2022/06/09 07:25:37;;;;;;;5.68;3.65;;;25.00;99.90;;;;;;4139315;28;20033;-64
2022/06/09 07:27:38;;;;;;;5.47;3.00;;;25.20;99.90;;;;;;4140052;28;20026;-66
2022/06/09 07:29:40;;;;;;;4.78;3.45;;;25.10;99.90;;;;;;4139138;28;20033;-63
2022/06/09 07:31:41;;;;;;;3.65;3.35;;;25.20;99.70;;;;;;4140293;28;20030;-65
2022/06/09 07:33:43;;;;;;;5.65;3.45;;;24.80;99.70;;;;;;4139545;28;20038;-63
2022/06/09 07:35:44;;;;;;;10.35;3.78;;;24.60;99.90;;;;;;4139909;28;20026;-64
2022/06/09 07:37:45;;;;;;;8.80;2.83;;;24.40;99.90;;;;;;4139420;28;20038;-64
2022/06/09 07:39:46;;;;;;;2.55;2.38;;;24.40;99.90;;;;;;4139750;28;20049;-64
2022/06/09 07:41:47;;;;;;;3.90;2.33;;;24.40;99.80;;;;;;4140216;28;20025;-63
2022/06/09 07:43:50;;;;;;;4.22;2.83;;;24.40;99.50;;;;;;4170817;28;20075;-64
2022/06/09 07:45:51;;;;;;;3.78;2.90;;;24.50;99.30;;;;;;4139810;28;20103;-67
2022/06/09 07:47:52;;;;;;;4.05;2.65;;;24.70;99.00;;;;;;4139446;28;20088;-64
2022/06/09 07:49:54;;;;;;;2.42;2.22;;;24.90;98.60;;;;;;4139827;28;20038;-66
2022/06/09 07:51:55;;;;;;;5.13;2.20;;;24.90;98.10;;;;;;4139294;28;20022;-65
2022/06/09 07:53:57;;;;;;;6.53;2.58;;;24.90;98.20;;;;;;4140430;28;20359;-65
2022/06/09 07:55:58;;;;;;;3.30;2.13;;;25.00;97.80;;;;;;4138649;28;20022;-66
2022/06/09 07:58:00;;;;;;;6.35;1.85;;;25.00;97.70;;;;;;4140053;28;20034;-66
2022/06/09 08:00:03;;;;;;;2.30;1.80;;;25.10;97.40;;;;;;4138946;28;20179;-64
2022/06/09 08:02:04;;;;;;;3.90;1.85;;;25.00;97.00;;;;;;4139887;28;20540;-66
2022/06/09 08:04:06;;;;;;;3.25;2.40;;;24.90;97.10;;;;;;4139623;28;20465;-65
2022/06/09 08:06:08;;;;;;;3.88;2.33;;;24.80;97.20;;;;;;4140502;28;20046;-66
2022/06/09 08:08:11;;;;;;;13.10;3.92;;;24.90;97.20;;;;;;4139724;28;20549;-67
2022/06/09 08:10:18;;;;;;;4.28;2.60;;;24.80;97.40;;;;;;4139076;28;20414;-66
2022/06/09 08:12:20;;;;;;;5.63;2.72;;;24.90;97.30;;;;;;4139213;28;20097;-67
2022/06/09 08:14:21;;;;;;;2.85;2.13;;;24.90;97.10;;;;;;4139254;28;20088;-68
2022/06/09 08:16:23;;;;;;;2.95;1.80;;;25.00;96.90;;;;;;4139630;28;20823;-64
2022/06/09 08:18:25;;;;;;;4.72;2.10;;;25.10;96.80;;;;;;4139481;28;20182;-65
2022/06/09 08:20:29;;;;;;;2.40;1.80;;;25.30;96.70;;;;;;4139584;28;20037;-64
2022/06/09 08:22:31;;;;;;;5.78;1.95;;;25.20;96.60;;;;;;4139285;28;20076;-63
2022/06/09 08:24:36;;;;;;;3.13;1.80;;;25.20;96.30;;;;;;4139796;28;20429;-64
2022/06/09 08:26:37;;;;;;;3.75;1.90;;;25.20;96.30;;;;;;4138326;28;20500;-64
2022/06/09 08:28:38;;;;;;;1.52;1.38;;;25.30;96.10;;;;;;4139343;28;20084;-64
2022/06/09 08:30:39;;;;;;;8.60;2.28;;;25.40;95.20;;;;;;4138702;28;20034;-65
2022/06/09 08:32:41;;;;;;;6.25;2.03;;;25.30;95.00;;;;;;4139243;28;20125;-66
2022/06/09 08:34:42;;;;;;;7.70;1.90;;;25.30;95.20;;;;;;4138351;28;20034;-66
2022/06/09 08:36:44;;;;;;;6.22;1.77;;;25.40;94.60;;;;;;4139028;28;20442;-64
2022/06/09 08:38:46;;;;;;;4.80;1.85;;;25.30;94.00;;;;;;4138876;28;20025;-65
2022/06/09 08:40:56;;;;;;;3.92;1.52;;;25.10;94.20;;;;;;4138903;28;20053;-63
2022/06/09 08:43:25;;;;;;;6.43;1.60;;;25.20;93.90;;;;;;4139206;28;20026;-64
2022/06/09 08:45:35;;;;;;;4.30;1.55;;;25.10;93.60;;;;;;4139591;28;20088;-64
2022/06/09 08:47:37;;;;;;;;;;;25.30;93.10;;;;;;4138975;28;20065;-64
2022/06/09 08:49:54;;;;;;;2.90;1.58;;;25.30;92.30;;;;;;4139739;28;19995;-65
2022/06/09 08:52:00;;;;;;;3.33;1.40;;;25.40;93.10;;;;;;4141681;28;20379;-67
2022/06/09 08:54:11;;;;;;;3.00;1.40;;;25.40;92.60;;;;;;4142510;28;20096;-65
2022/06/09 08:56:23;;;;;;;2.22;1.40;;;25.20;91.80;;;;;;4141433;28;20100;-65
2022/06/09 08:58:34;;;;;;;3.30;1.55;;;25.20;91.30;;;;;;4142682;28;20051;-64
2022/06/09 09:01:02;;;;;;;3.80;1.80;;;25.30;91.90;;;;;;4141934;28;20053;-66
2022/06/09 09:03:12;;;;;;;2.63;1.63;;;25.40;92.70;;;;;;4142374;28;20049;-66
2022/06/09 09:05:13;;;;;;;;;;;25.50;92.30;;;;;;4142216;28;20544;-65
2022/06/09 09:07:30;;;;;;;3.22;1.48;;;25.50;91.30;;;;;;4141019;28;19909;-67
2022/06/09 09:09:34;;;;;;;2.28;1.13;;;25.70;91.80;;;;;;4141191;28;20034;-64
2022/06/09 09:12:02;;;;;;;2.47;1.25;;;25.70;91.40;;;;;;4141879;28;20038;-64
2022/06/09 09:14:12;;;;;;;6.70;1.67;;;25.70;90.60;;;;;;4139825;28;20533;-64
2022/06/09 09:16:26;;;;;;;3.45;1.55;;;25.60;90.60;;;;;;4141993;28;20034;-64
2022/06/09 09:18:30;;;;;;;1.70;1.30;;;25.70;90.50;;;;;;4141697;28;20034;-64
2022/06/09 09:20:37;;;;;;;5.38;1.55;;;25.80;90.90;;;;;;4142760;28;20115;-65
2022/06/09 09:22:54;;;;;;;1.10;1.10;;;25.90;90.50;;;;;;4141232;28;20281;-66
2022/06/09 09:25:16;;;;;;;4.63;1.75;;;25.80;90.30;;;;;;4143056;28;20786;-65
2022/06/09 09:27:44;;;;;;;1.60;1.40;;;25.80;90.30;;;;;;4141657;28;20029;-65
2022/06/09 09:29:57;;;;;;;2.88;1.30;;;25.80;89.90;;;;;;4141938;28;20533;-66
2022/06/09 09:32:26;;;;;;;3.13;1.05;;;26.00;90.10;;;;;;4141291;28;20042;-67
2022/06/09 09:34:38;;;;;;;4.43;2.13;;;26.00;89.80;;;;;;4141475;28;20110;-64
2022/06/09 09:36:43;;;;;;;3.28;1.63;;;26.10;89.30;;;;;;4141164;28;20037;-64
2022/06/09 09:39:02;;;;;;;2.28;1.23;;;26.00;89.60;;;;;;4141909;28;20481;-65
2022/06/09 09:41:03;;;;;;;3.20;1.30;;;25.80;89.30;;;;;;4141224;28;20042;-65
2022/06/09 09:43:11;;;;;;;4.15;1.40;;;26.00;90.00;;;;;;4140735;28;20473;-66
2022/06/09 09:45:20;;;;;;;4.15;1.38;;;26.00;88.50;;;;;;4140601;28;20038;-65
2022/06/09 09:47:26;;;;;;;1.77;1.27;;;25.90;88.70;;;;;;4140529;28;20026;-65
2022/06/09 09:49:39;;;;;;;2.03;1.40;;;25.90;87.20;;;;;;4140253;28;20057;-65
2022/06/09 09:51:40;;;;;;;3.65;1.13;;;25.90;87.90;;;;;;4140370;28;20387;-64
2022/06/09 09:53:54;;;;;;;2.78;1.10;;;26.10;87.50;;;;;;4141248;28;20029;-64
2022/06/09 09:56:23;;;;;;;3.97;1.27;;;26.40;82.10;;;;;;4140951;28;20034;-67
2022/06/09 09:58:36;;;;;;;4.95;1.05;;;26.50;84.20;;;;;;4140786;28;20121;-64
2022/06/09 10:00:37;;;;;;;5.57;1.10;;;26.40;83.30;;;;;;4139901;28;20050;-64
2022/06/09 10:09:53;;;;;;;2.83;1.02;;;26.80;81.60;;;;;;4140558;28;20030;-65
2022/06/09 10:11:59;;;;;;;6.25;1.88;;;26.70;81.80;;;;;;4141057;28;20038;-66
2022/06/09 10:14:02;;;;;;;3.13;1.30;;;26.70;80.70;;;;;;4141189;28;20175;-64
2022/06/09 10:16:14;;;;;;;2.47;1.02;;;26.60;79.80;;;;;;4141364;28;20046;-65
2022/06/09 10:18:19;;;;;;;3.17;0.90;;;26.50;79.20;;;;;;4140621;28;20088;-64
2022/06/09 10:20:35;;;;;;;4.05;1.50;;;26.40;78.50;;;;;;4142100;28;20112;-64
2022/06/09 10:22:38;;;;;;;4.55;1.10;;;26.50;76.50;;;;;;4140453;28;20494;-66
2022/06/09 10:24:45;;;;;;;1.98;1.20;;;26.50;77.10;;;;;;4141522;28;20038;-64
2022/06/09 10:26:54;;;;;;;3.25;0.60;;;26.50;76.60;;;;;;4140370;28;20080;-65
2022/06/09 10:28:58;;;;;;;4.10;1.10;;;26.30;75.90;;;;;;4139570;28;20045;-66
2022/06/09 10:31:20;;;;;;;3.10;1.50;;;26.40;77.70;;;;;;4140608;28;20029;-63
2022/06/09 10:33:38;;;;;;;3.63;0.82;;;26.40;76.90;;;;;;4139672;28;20042;-66
2022/06/09 10:35:54;;;;;;;2.22;0.90;;;26.40;77.50;;;;;;4140435;28;20030;-65
2022/06/09 10:38:03;;;;;;;4.57;0.93;;;26.40;77.00;;;;;;4141638;28;20580;-64
2022/06/09 10:40:10;;;;;;;6.15;1.00;;;26.30;77.00;;;;;;4140215;28;20078;-64
2022/06/09 10:42:29;;;;;;;2.63;1.05;;;26.20;77.90;;;;;;4140886;28;20080;-65
2022/06/09 10:44:44;;;;;;;3.35;0.77;;;26.30;77.20;;;;;;4140286;28;20034;-66
2022/06/09 10:57:38;;;;;;;1.77;0.95;;;26.60;75.40;;;;;;4139870;28;20103;-65
2022/06/09 10:59:43;;;;;;;4.60;1.02;;;26.50;75.00;;;;;;4141454;28;20096;-65
2022/06/09 11:01:44;;;;;;;2.28;1.02;;;26.60;76.40;;;;;;4139729;28;20116;-64
2022/06/09 11:03:49;;;;;;;2.70;1.40;;;26.70;76.80;;;;;;4140379;28;20033;-66
2022/06/09 11:06:14;;;;;;;4.78;1.08;;;26.70;76.60;;;;;;4140157;28;20537;-64
2022/06/09 11:08:15;;;;;;;1.85;1.02;;;26.60;76.00;;;;;;4141093;28;20046;-67
2022/06/09 11:10:19;;;;;;;4.57;0.93;;;26.40;76.50;;;;;;4140009;28;20030;-68
2022/06/09 11:12:20;;;;;;;3.47;1.00;;;26.50;76.90;;;;;;4139924;28;20536;-67
2022/06/09 11:14:43;;;;;;;3.22;1.20;;;26.60;77.30;;;;;;4139762;28;20038;-64
2022/06/09 11:17:33;;;;;;;7.50;1.73;;;26.70;76.70;;;;;;4140946;28;20465;-66
2022/06/09 11:19:45;;;;;;;4.93;1.17;;;26.80;74.70;;;;;;4136577;28;20088;-65